sensor_id;sensor_type;location;lat;lon;timestamp;temperature;humidity
20690;DHT22;10504;48.762;8.996;2024-03-02T00:02:01;5.70;99.90
20690;DHT22;10504;48.762;8.996;2024-03-02T00:04:27;5.80;99.90
20690;DHT22;10504;48.762;8.996;2024-03-02T00:06:53;5.80;99.90
20690;DHT22;10504;48.762;8.996;2024-03-02T00:09:22;5.80;99.90
20690;DHT22;10504;48.762;8.996;2024-03-02T00:11:47;5.70;99.90
20690;DHT22;10504;48.762;8.996;2024-03-02T00:14:13;5.70;99.90
20690;DHT22;10504;48.762;8.996;2024-03-02T00:16:38;5.70;99.90
20690;DHT22;10504;48.762;8.996;2024-03-02T00:19:05;5.70;99.90
20690;DHT22;10504;48.762;8.996;2024-03-02T00:21:32;5.70;99.90
20690;DHT22;10504;48.762;8.996;2024-03-02T00:23:58;5.70;99.90
20690;DHT22;10504;48.762;8.996;2024-03-02T00:26:25;5.60;99.90
20690;DHT22;10504;48.762;8.996;2024-03-02T00:28:54;5.60;99.90
20690;DHT22;10504;48.762;8.996;2024-03-02T00:31:22;5.70;99.90
20690;DHT22;10504;48.762;8.996;2024-03-02T00:33:48;5.70;99.90
20690;DHT22;10504;48.762;8.996;2024-03-02T00:36:16;5.60;99.90
20690;DHT22;10504;48.762;8.996;2024-03-02T00:38:49;5.60;99.90
20690;DHT22;10504;48.762;8.996;2024-03-02T00:41:31;5.70;99.90
20690;DHT22;10504;48.762;8.996;2024-03-02T00:43:58;5.60;99.90
20690;DHT22;10504;48.762;8.996;2024-03-02T00:46:28;5.60;99.90
20690;DHT22;10504;48.762;8.996;2024-03-02T00:49:03;5.70;99.90
20690;DHT22;10504;48.762;8.996;2024-03-02T00:51:33;5.70;99.90
20690;DHT22;10504;48.762;8.996;2024-03-02T00:54:01;5.60;99.90
20690;DHT22;10504;48.762;8.996;2024-03-02T00:56:29;5.60;99.90
20690;DHT22;10504;48.762;8.996;2024-03-02T00:58:55;5.60;99.90
20690;DHT22;10504;48.762;8.996;2024-03-02T01:01:20;5.60;99.90
20690;DHT22;10504;48.762;8.996;2024-03-02T01:03:47;5.60;99.90
20690;DHT22;10504;48.762;8.996;2024-03-02T01:06:12;5.60;99.90
20690;DHT22;10504;48.762;8.996;2024-03-02T01:08:38;5.60;99.90
20690;DHT22;10504;48.762;8.996;2024-03-02T01:11:04;5.60;99.90
20690;DHT22;10504;48.762;8.996;2024-03-02T01:13:31;5.60;99.90
20690;DHT22;10504;48.762;8.996;2024-03-02T01:15:56;5.50;99.90
20690;DHT22;10504;48.762;8.996;2024-03-02T01:18:22;5.60;99.90
20690;DHT22;10504;48.762;8.996;2024-03-02T01:20:48;5.50;99.90
20690;DHT22;10504;48.762;8.996;2024-03-02T01:23:17;5.50;99.90
20690;DHT22;10504;48.762;8.996;2024-03-02T01:25:43;5.50;99.90
20690;DHT22;10504;48.762;8.996;2024-03-02T01:28:08;5.50;99.90
20690;DHT22;10504;48.762;8.996;2024-03-02T01:30:34;5.50;99.90
20690;DHT22;10504;48.762;8.996;2024-03-02T01:33:00;5.50;99.90
20690;DHT22;10504;48.762;8.996;2024-03-02T01:35:27;5.50;99.90
20690;DHT22;10504;48.762;8.996;2024-03-02T01:37:53;5.50;99.90
20690;DHT22;10504;48.762;8.996;2024-03-02T01:40:19;5.50;99.90
20690;DHT22;10504;48.762;8.996;2024-03-02T01:42:45;5.50;99.90
20690;DHT22;10504;48.762;8.996;2024-03-02T01:45:11;5.50;99.90
20690;DHT22;10504;48.762;8.996;2024-03-02T01:47:37;5.40;99.90
20690;DHT22;10504;48.762;8.996;2024-03-02T01:50:03;5.40;99.90
20690;DHT22;10504;48.762;8.996;2024-03-02T01:52:29;5.40;99.90
20690;DHT22;10504;48.762;8.996;2024-03-02T01:54:55;5.40;99.90
20690;DHT22;10504;48.762;8.996;2024-03-02T01:57:21;5.40;99.90
20690;DHT22;10504;48.762;8.996;2024-03-02T01:59:47;5.30;99.90
20690;DHT22;10504;48.762;8.996;2024-03-02T02:02:16;5.30;99.90
20690;DHT22;10504;48.762;8.996;2024-03-02T02:04:42;5.30;99.90
20690;DHT22;10504;48.762;8.996;2024-03-02T02:07:08;5.30;99.90
20690;DHT22;10504;48.762;8.996;2024-03-02T02:09:33;5.30;99.90
20690;DHT22;10504;48.762;8.996;2024-03-02T02:11:59;5.30;99.90
20690;DHT22;10504;48.762;8.996;2024-03-02T02:14:25;5.30;99.90
20690;DHT22;10504;48.762;8.996;2024-03-02T02:16:51;5.20;99.90
20690;DHT22;10504;48.762;8.996;2024-03-02T02:19:17;5.20;99.90
20690;DHT22;10504;48.762;8.996;2024-03-02T02:21:43;5.20;99.90
20690;DHT22;10504;48.762;8.996;2024-03-02T02:24:09;5.20;99.90
20690;DHT22;10504;48.762;8.996;2024-03-02T02:26:35;5.20;99.90
20690;DHT22;10504;48.762;8.996;2024-03-02T02:29:00;5.20;99.90
20690;DHT22;10504;48.762;8.996;2024-03-02T02:31:26;5.20;99.90
20690;DHT22;10504;48.762;8.996;2024-03-02T02:33:51;5.20;99.90
20690;DHT22;10504;48.762;8.996;2024-03-02T02:36:17;5.20;99.90
20690;DHT22;10504;48.762;8.996;2024-03-02T02:38:46;5.10;99.90
20690;DHT22;10504;48.762;8.996;2024-03-02T02:41:13;5.10;99.90
20690;DHT22;10504;48.762;8.996;2024-03-02T02:43:39;5.10;99.90
20690;DHT22;10504;48.762;8.996;2024-03-02T02:46:05;5.10;99.90
20690;DHT22;10504;48.762;8.996;2024-03-02T02:48:31;5.10;99.90
20690;DHT22;10504;48.762;8.996;2024-03-02T02:50:56;5.10;99.90
20690;DHT22;10504;48.762;8.996;2024-03-02T02:53:22;5.10;99.90
20690;DHT22;10504;48.762;8.996;2024-03-02T02:55:48;5.10;99.90
20690;DHT22;10504;48.762;8.996;2024-03-02T02:58:13;5.10;99.90
20690;DHT22;10504;48.762;8.996;2024-03-02T03:00:40;5.10;99.90
20690;DHT22;10504;48.762;8.996;2024-03-02T03:03:06;5.10;99.90
20690;DHT22;10504;48.762;8.996;2024-03-02T03:05:31;5.10;99.90
20690;DHT22;10504;48.762;8.996;2024-03-02T03:07:57;5.00;99.90
20690;DHT22;10504;48.762;8.996;2024-03-02T03:10:22;5.00;99.90
20690;DHT22;10504;48.762;8.996;2024-03-02T03:12:51;5.00;99.90
20690;DHT22;10504;48.762;8.996;2024-03-02T03:15:17;5.00;99.90
20690;DHT22;10504;48.762;8.996;2024-03-02T03:17:42;5.00;99.90
20690;DHT22;10504;48.762;8.996;2024-03-02T03:20:08;5.00;99.90
20690;DHT22;10504;48.762;8.996;2024-03-02T03:22:38;5.00;99.90
20690;DHT22;10504;48.762;8.996;2024-03-02T03:25:05;5.00;99.90
20690;DHT22;10504;48.762;8.996;2024-03-02T03:27:30;5.00;99.90
20690;DHT22;10504;48.762;8.996;2024-03-02T03:29:56;4.90;99.90
20690;DHT22;10504;48.762;8.996;2024-03-02T03:32:22;5.00;99.90
20690;DHT22;10504;48.762;8.996;2024-03-02T03:34:47;5.00;99.90
20690;DHT22;10504;48.762;8.996;2024-03-02T03:37:14;5.00;99.90
20690;DHT22;10504;48.762;8.996;2024-03-02T03:39:39;4.90;99.90
20690;DHT22;10504;48.762;8.996;2024-03-02T03:42:05;4.90;99.90
20690;DHT22;10504;48.762;8.996;2024-03-02T03:44:31;4.90;99.90
20690;DHT22;10504;48.762;8.996;2024-03-02T03:46:57;4.90;99.90
20690;DHT22;10504;48.762;8.996;2024-03-02T03:49:23;4.90;99.90
20690;DHT22;10504;48.762;8.996;2024-03-02T03:51:48;4.90;99.90
20690;DHT22;10504;48.762;8.996;2024-03-02T03:54:14;4.90;99.90
20690;DHT22;10504;48.762;8.996;2024-03-02T03:56:40;4.90;99.90
20690;DHT22;10504;48.762;8.996;2024-03-02T03:59:06;4.90;99.90
20690;DHT22;10504;48.762;8.996;2024-03-02T04:01:31;4.90;99.90
20690;DHT22;10504;48.762;8.996;2024-03-02T04:03:57;4.90;99.90
20690;DHT22;10504;48.762;8.996;2024-03-02T04:06:23;4.90;99.90
20690;DHT22;10504;48.762;8.996;2024-03-02T04:08:49;4.90;99.90
20690;DHT22;10504;48.762;8.996;2024-03-02T04:11:14;5.00;99.90
20690;DHT22;10504;48.762;8.996;2024-03-02T04:13:40;5.00;99.90
20690;DHT22;10504;48.762;8.996;2024-03-02T04:16:06;5.00;99.90
20690;DHT22;10504;48.762;8.996;2024-03-02T04:18:32;5.00;99.90
20690;DHT22;10504;48.762;8.996;2024-03-02T04:20:58;5.00;99.90
20690;DHT22;10504;48.762;8.996;2024-03-02T04:23:25;5.00;99.90
20690;DHT22;10504;48.762;8.996;2024-03-02T04:25:51;5.00;99.90
20690;DHT22;10504;48.762;8.996;2024-03-02T04:28:17;5.00;99.90
20690;DHT22;10504;48.762;8.996;2024-03-02T04:30:42;4.90;99.90
20690;DHT22;10504;48.762;8.996;2024-03-02T04:33:08;4.90;99.90
20690;DHT22;10504;48.762;8.996;2024-03-02T04:35:36;4.90;99.90
20690;DHT22;10504;48.762;8.996;2024-03-02T04:38:01;4.90;99.90
20690;DHT22;10504;48.762;8.996;2024-03-02T04:40:27;4.90;99.90
20690;DHT22;10504;48.762;8.996;2024-03-02T04:42:52;5.00;99.90
20690;DHT22;10504;48.762;8.996;2024-03-02T04:45:18;5.00;99.90
20690;DHT22;10504;48.762;8.996;2024-03-02T04:47:44;5.00;99.90
20690;DHT22;10504;48.762;8.996;2024-03-02T04:50:09;5.00;99.90
20690;DHT22;10504;48.762;8.996;2024-03-02T04:52:36;5.00;99.90
20690;DHT22;10504;48.762;8.996;2024-03-02T04:55:02;5.00;99.90
20690;DHT22;10504;48.762;8.996;2024-03-02T04:57:46;5.00;99.90
20690;DHT22;10504;48.762;8.996;2024-03-02T05:00:13;5.00;99.90
20690;DHT22;10504;48.762;8.996;2024-03-02T05:02:38;5.00;99.90
20690;DHT22;10504;48.762;8.996;2024-03-02T05:05:04;5.00;99.90
20690;DHT22;10504;48.762;8.996;2024-03-02T05:07:30;5.00;99.90
20690;DHT22;10504;48.762;8.996;2024-03-02T05:09:55;5.00;99.90
20690;DHT22;10504;48.762;8.996;2024-03-02T05:12:21;5.00;99.90
20690;DHT22;10504;48.762;8.996;2024-03-02T05:15:06;5.00;99.90
20690;DHT22;10504;48.762;8.996;2024-03-02T05:17:32;5.00;99.90
20690;DHT22;10504;48.762;8.996;2024-03-02T05:19:58;5.00;99.90
20690;DHT22;10504;48.762;8.996;2024-03-02T05:22:24;5.00;99.90
20690;DHT22;10504;48.762;8.996;2024-03-02T05:24:50;5.00;99.90
20690;DHT22;10504;48.762;8.996;2024-03-02T05:27:16;5.00;99.90
20690;DHT22;10504;48.762;8.996;2024-03-02T05:29:42;5.00;99.90
20690;DHT22;10504;48.762;8.996;2024-03-02T05:32:07;4.90;99.90
20690;DHT22;10504;48.762;8.996;2024-03-02T05:34:33;4.90;99.90
20690;DHT22;10504;48.762;8.996;2024-03-02T05:37:01;4.90;99.90
20690;DHT22;10504;48.762;8.996;2024-03-02T05:39:26;4.90;99.90
20690;DHT22;10504;48.762;8.996;2024-03-02T05:41:52;4.90;99.90
20690;DHT22;10504;48.762;8.996;2024-03-02T05:44:18;4.80;99.90
20690;DHT22;10504;48.762;8.996;2024-03-02T05:46:44;4.70;99.90
20690;DHT22;10504;48.762;8.996;2024-03-02T05:49:10;4.70;99.90
20690;DHT22;10504;48.762;8.996;2024-03-02T05:51:35;4.70;99.90
20690;DHT22;10504;48.762;8.996;2024-03-02T05:54:01;4.70;99.90
20690;DHT22;10504;48.762;8.996;2024-03-02T05:56:27;4.70;99.90
20690;DHT22;10504;48.762;8.996;2024-03-02T05:58:53;4.70;99.90
20690;DHT22;10504;48.762;8.996;2024-03-02T06:01:37;4.70;99.90
20690;DHT22;10504;48.762;8.996;2024-03-02T06:04:03;4.70;99.90
20690;DHT22;10504;48.762;8.996;2024-03-02T06:06:28;4.70;99.90
20690;DHT22;10504;48.762;8.996;2024-03-02T06:08:54;4.70;99.90
20690;DHT22;10504;48.762;8.996;2024-03-02T06:11:20;4.70;99.90
20690;DHT22;10504;48.762;8.996;2024-03-02T06:13:45;4.70;99.90
20690;DHT22;10504;48.762;8.996;2024-03-02T06:16:12;4.80;99.90
20690;DHT22;10504;48.762;8.996;2024-03-02T06:18:37;4.80;99.90
20690;DHT22;10504;48.762;8.996;2024-03-02T06:21:03;4.80;99.90
20690;DHT22;10504;48.762;8.996;2024-03-02T06:23:29;4.80;99.90
20690;DHT22;10504;48.762;8.996;2024-03-02T06:25:54;4.80;99.90
20690;DHT22;10504;48.762;8.996;2024-03-02T06:28:20;4.80;99.90
20690;DHT22;10504;48.762;8.996;2024-03-02T06:30:46;4.90;99.90
20690;DHT22;10504;48.762;8.996;2024-03-02T06:33:11;4.90;99.90
20690;DHT22;10504;48.762;8.996;2024-03-02T06:35:37;4.90;99.90
20690;DHT22;10504;48.762;8.996;2024-03-02T06:38:03;4.90;99.90
20690;DHT22;10504;48.762;8.996;2024-03-02T06:40:29;4.90;99.90
20690;DHT22;10504;48.762;8.996;2024-03-02T06:42:54;4.90;99.90
20690;DHT22;10504;48.762;8.996;2024-03-02T06:45:20;4.90;99.90
20690;DHT22;10504;48.762;8.996;2024-03-02T06:47:46;5.00;99.90
20690;DHT22;10504;48.762;8.996;2024-03-02T06:50:11;5.00;99.90
20690;DHT22;10504;48.762;8.996;2024-03-02T06:52:37;5.00;99.90
20690;DHT22;10504;48.762;8.996;2024-03-02T06:55:03;5.00;99.90
20690;DHT22;10504;48.762;8.996;2024-03-02T06:57:29;5.00;99.90
20690;DHT22;10504;48.762;8.996;2024-03-02T06:59:55;5.00;99.90
20690;DHT22;10504;48.762;8.996;2024-03-02T07:02:24;5.00;99.90
20690;DHT22;10504;48.762;8.996;2024-03-02T07:04:51;5.00;99.90
20690;DHT22;10504;48.762;8.996;2024-03-02T07:07:16;5.00;99.90
20690;DHT22;10504;48.762;8.996;2024-03-02T07:09:42;5.00;99.90
20690;DHT22;10504;48.762;8.996;2024-03-02T07:12:08;5.00;99.90
20690;DHT22;10504;48.762;8.996;2024-03-02T07:14:33;5.00;99.90
20690;DHT22;10504;48.762;8.996;2024-03-02T07:17:19;5.00;99.90
20690;DHT22;10504;48.762;8.996;2024-03-02T07:19:45;5.10;99.90
20690;DHT22;10504;48.762;8.996;2024-03-02T07:22:10;5.00;99.90
20690;DHT22;10504;48.762;8.996;2024-03-02T07:24:44;5.00;99.90
20690;DHT22;10504;48.762;8.996;2024-03-02T07:27:11;5.00;99.90
20690;DHT22;10504;48.762;8.996;2024-03-02T07:29:37;5.00;99.90
20690;DHT22;10504;48.762;8.996;2024-03-02T07:32:03;5.00;99.90
20690;DHT22;10504;48.762;8.996;2024-03-02T07:34:29;5.00;99.90
20690;DHT22;10504;48.762;8.996;2024-03-02T07:36:55;5.00;99.90
20690;DHT22;10504;48.762;8.996;2024-03-02T07:39:21;5.00;99.90
20690;DHT22;10504;48.762;8.996;2024-03-02T07:41:46;5.00;99.90
20690;DHT22;10504;48.762;8.996;2024-03-02T07:44:12;5.00;99.90
20690;DHT22;10504;48.762;8.996;2024-03-02T07:46:42;5.00;99.90
20690;DHT22;10504;48.762;8.996;2024-03-02T07:49:08;4.90;99.90
20690;DHT22;10504;48.762;8.996;2024-03-02T07:51:34;5.00;99.90
20690;DHT22;10504;48.762;8.996;2024-03-02T07:53:59;5.00;99.90
20690;DHT22;10504;48.762;8.996;2024-03-02T07:56:25;4.90;99.90
20690;DHT22;10504;48.762;8.996;2024-03-02T07:58:51;4.90;99.90
20690;DHT22;10504;48.762;8.996;2024-03-02T08:01:17;4.90;99.90
20690;DHT22;10504;48.762;8.996;2024-03-02T08:03:43;4.90;99.90
20690;DHT22;10504;48.762;8.996;2024-03-02T08:06:14;4.90;99.90
20690;DHT22;10504;48.762;8.996;2024-03-02T08:08:40;5.00;99.90
20690;DHT22;10504;48.762;8.996;2024-03-02T08:11:06;5.00;99.90
20690;DHT22;10504;48.762;8.996;2024-03-02T08:13:32;5.00;99.90
20690;DHT22;10504;48.762;8.996;2024-03-02T08:15:57;5.10;99.90
20690;DHT22;10504;48.762;8.996;2024-03-02T08:18:24;5.10;99.90
20690;DHT22;10504;48.762;8.996;2024-03-02T08:20:49;5.20;99.90
20690;DHT22;10504;48.762;8.996;2024-03-02T08:23:15;5.20;99.90
20690;DHT22;10504;48.762;8.996;2024-03-02T08:25:41;5.30;99.90
20690;DHT22;10504;48.762;8.996;2024-03-02T08:28:07;5.30;99.90
20690;DHT22;10504;48.762;8.996;2024-03-02T08:30:33;5.40;99.90
20690;DHT22;10504;48.762;8.996;2024-03-02T08:32:59;5.40;99.90
20690;DHT22;10504;48.762;8.996;2024-03-02T08:35:25;5.50;99.90
20690;DHT22;10504;48.762;8.996;2024-03-02T08:37:51;5.50;99.90
20690;DHT22;10504;48.762;8.996;2024-03-02T08:40:16;5.50;99.90
20690;DHT22;10504;48.762;8.996;2024-03-02T08:42:42;5.60;99.90
20690;DHT22;10504;48.762;8.996;2024-03-02T08:45:08;5.60;99.90
20690;DHT22;10504;48.762;8.996;2024-03-02T08:47:34;5.60;99.90
20690;DHT22;10504;48.762;8.996;2024-03-02T08:50:00;5.70;99.90
20690;DHT22;10504;48.762;8.996;2024-03-02T08:52:26;5.70;99.90
20690;DHT22;10504;48.762;8.996;2024-03-02T08:54:52;5.70;99.90
20690;DHT22;10504;48.762;8.996;2024-03-02T08:57:18;5.80;99.90
20690;DHT22;10504;48.762;8.996;2024-03-02T08:59:44;5.80;99.90
20690;DHT22;10504;48.762;8.996;2024-03-02T09:02:10;5.80;99.90
20690;DHT22;10504;48.762;8.996;2024-03-02T09:04:36;5.80;99.90
20690;DHT22;10504;48.762;8.996;2024-03-02T09:07:01;5.90;99.90
20690;DHT22;10504;48.762;8.996;2024-03-02T09:09:27;5.90;99.90
20690;DHT22;10504;48.762;8.996;2024-03-02T09:11:53;6.00;99.90
20690;DHT22;10504;48.762;8.996;2024-03-02T09:14:21;6.00;99.90
20690;DHT22;10504;48.762;8.996;2024-03-02T09:16:46;6.10;99.90
20690;DHT22;10504;48.762;8.996;2024-03-02T09:19:12;6.10;99.90
20690;DHT22;10504;48.762;8.996;2024-03-02T09:21:37;6.20;99.90
20690;DHT22;10504;48.762;8.996;2024-03-02T09:24:03;6.30;99.90
20690;DHT22;10504;48.762;8.996;2024-03-02T09:26:29;6.30;99.90
20690;DHT22;10504;48.762;8.996;2024-03-02T09:28:55;6.40;99.90
20690;DHT22;10504;48.762;8.996;2024-03-02T09:31:20;6.40;99.90
20690;DHT22;10504;48.762;8.996;2024-03-02T09:33:46;6.50;99.90
20690;DHT22;10504;48.762;8.996;2024-03-02T09:36:19;6.50;99.90
20690;DHT22;10504;48.762;8.996;2024-03-02T09:38:45;6.60;99.90
20690;DHT22;10504;48.762;8.996;2024-03-02T09:41:10;6.70;99.90
20690;DHT22;10504;48.762;8.996;2024-03-02T09:43:36;6.80;99.90
20690;DHT22;10504;48.762;8.996;2024-03-02T09:46:03;6.80;99.90
20690;DHT22;10504;48.762;8.996;2024-03-02T09:48:29;6.90;99.90
20690;DHT22;10504;48.762;8.996;2024-03-02T09:50:54;6.90;99.90
20690;DHT22;10504;48.762;8.996;2024-03-02T09:53:20;7.00;99.90
20690;DHT22;10504;48.762;8.996;2024-03-02T09:55:47;7.10;99.90
20690;DHT22;10504;48.762;8.996;2024-03-02T09:58:13;7.20;99.90
20690;DHT22;10504;48.762;8.996;2024-03-02T10:00:38;7.20;99.90
20690;DHT22;10504;48.762;8.996;2024-03-02T10:03:04;7.30;99.90
20690;DHT22;10504;48.762;8.996;2024-03-02T10:05:31;7.30;99.90
20690;DHT22;10504;48.762;8.996;2024-03-02T10:08:03;7.30;99.90
20690;DHT22;10504;48.762;8.996;2024-03-02T10:10:39;7.40;99.90
20690;DHT22;10504;48.762;8.996;2024-03-02T10:13:10;7.40;99.90
20690;DHT22;10504;48.762;8.996;2024-03-02T10:15:37;7.40;99.90
20690;DHT22;10504;48.762;8.996;2024-03-02T10:18:04;7.50;99.90
20690;DHT22;10504;48.762;8.996;2024-03-02T10:20:29;7.50;99.90
20690;DHT22;10504;48.762;8.996;2024-03-02T10:22:56;7.60;99.90
20690;DHT22;10504;48.762;8.996;2024-03-02T10:25:34;7.60;99.90
20690;DHT22;10504;48.762;8.996;2024-03-02T10:28:00;7.70;99.90
20690;DHT22;10504;48.762;8.996;2024-03-02T10:30:27;7.70;99.90
20690;DHT22;10504;48.762;8.996;2024-03-02T10:32:56;7.70;99.90
20690;DHT22;10504;48.762;8.996;2024-03-02T10:35:22;7.70;99.90
20690;DHT22;10504;48.762;8.996;2024-03-02T10:37:49;7.80;99.90
20690;DHT22;10504;48.762;8.996;2024-03-02T10:40:15;7.90;99.90
20690;DHT22;10504;48.762;8.996;2024-03-02T10:42:42;8.00;99.90
20690;DHT22;10504;48.762;8.996;2024-03-02T10:45:10;8.10;99.90
20690;DHT22;10504;48.762;8.996;2024-03-02T10:47:38;8.10;99.90
20690;DHT22;10504;48.762;8.996;2024-03-02T10:50:05;8.20;99.90
20690;DHT22;10504;48.762;8.996;2024-03-02T10:52:37;8.20;99.90
20690;DHT22;10504;48.762;8.996;2024-03-02T10:55:03;8.20;99.90
20690;DHT22;10504;48.762;8.996;2024-03-02T10:57:53;8.30;99.90
20690;DHT22;10504;48.762;8.996;2024-03-02T11:00:19;8.40;99.90
20690;DHT22;10504;48.762;8.996;2024-03-02T11:02:51;8.40;99.90
20690;DHT22;10504;48.762;8.996;2024-03-02T11:05:23;8.50;99.90
20690;DHT22;10504;48.762;8.996;2024-03-02T11:07:56;8.50;99.90
20690;DHT22;10504;48.762;8.996;2024-03-02T11:10:23;8.60;99.90
20690;DHT22;10504;48.762;8.996;2024-03-02T11:13:00;8.70;99.90
20690;DHT22;10504;48.762;8.996;2024-03-02T11:15:27;8.70;99.90
20690;DHT22;10504;48.762;8.996;2024-03-02T11:17:54;8.80;99.90
20690;DHT22;10504;48.762;8.996;2024-03-02T11:20:20;8.80;99.90
20690;DHT22;10504;48.762;8.996;2024-03-02T11:22:46;8.90;99.90
20690;DHT22;10504;48.762;8.996;2024-03-02T11:25:26;8.90;99.90
20690;DHT22;10504;48.762;8.996;2024-03-02T11:35:26;9.20;99.90
20690;DHT22;10504;48.762;8.996;2024-03-02T11:37:52;9.30;99.90
20690;DHT22;10504;48.762;8.996;2024-03-02T11:40:22;9.30;99.90
20690;DHT22;10504;48.762;8.996;2024-03-02T11:42:47;9.40;99.90
20690;DHT22;10504;48.762;8.996;2024-03-02T11:45:17;9.40;99.90
20690;DHT22;10504;48.762;8.996;2024-03-02T11:47:56;9.50;99.90
20690;DHT22;10504;48.762;8.996;2024-03-02T11:50:29;9.60;99.90
20690;DHT22;10504;48.762;8.996;2024-03-02T11:52:56;9.60;99.90
20690;DHT22;10504;48.762;8.996;2024-03-02T11:55:24;9.60;99.90
20690;DHT22;10504;48.762;8.996;2024-03-02T11:57:52;9.70;99.90
20690;DHT22;10504;48.762;8.996;2024-03-02T12:00:19;9.70;99.90
20690;DHT22;10504;48.762;8.996;2024-03-02T12:02:46;9.80;99.90
20690;DHT22;10504;48.762;8.996;2024-03-02T12:05:15;9.90;99.90
20690;DHT22;10504;48.762;8.996;2024-03-02T12:07:42;9.90;99.90
20690;DHT22;10504;48.762;8.996;2024-03-02T12:10:09;9.90;99.90
20690;DHT22;10504;48.762;8.996;2024-03-02T12:12:34;10.00;99.90
20690;DHT22;10504;48.762;8.996;2024-03-02T12:15:00;10.10;99.90
20690;DHT22;10504;48.762;8.996;2024-03-02T12:17:26;10.20;99.90
20690;DHT22;10504;48.762;8.996;2024-03-02T12:19:52;10.20;99.90
20690;DHT22;10504;48.762;8.996;2024-03-02T12:22:18;10.30;99.90
20690;DHT22;10504;48.762;8.996;2024-03-02T12:24:44;10.40;99.90
20690;DHT22;10504;48.762;8.996;2024-03-02T12:27:14;10.40;99.90
20690;DHT22;10504;48.762;8.996;2024-03-02T12:29:40;10.50;99.90
20690;DHT22;10504;48.762;8.996;2024-03-02T12:32:06;10.50;99.90
20690;DHT22;10504;48.762;8.996;2024-03-02T12:34:32;10.60;99.90
20690;DHT22;10504;48.762;8.996;2024-03-02T12:36:58;10.70;99.90
20690;DHT22;10504;48.762;8.996;2024-03-02T12:39:24;10.70;99.90
20690;DHT22;10504;48.762;8.996;2024-03-02T12:41:51;10.70;99.90
20690;DHT22;10504;48.762;8.996;2024-03-02T12:44:17;10.70;99.90
20690;DHT22;10504;48.762;8.996;2024-03-02T12:46:43;10.70;99.90
20690;DHT22;10504;48.762;8.996;2024-03-02T12:49:14;10.80;99.90
20690;DHT22;10504;48.762;8.996;2024-03-02T12:51:43;10.80;99.90
20690;DHT22;10504;48.762;8.996;2024-03-02T12:54:11;10.80;99.90
20690;DHT22;10504;48.762;8.996;2024-03-02T12:56:37;10.90;99.90
20690;DHT22;10504;48.762;8.996;2024-03-02T12:59:04;10.90;99.90
20690;DHT22;10504;48.762;8.996;2024-03-02T13:01:30;10.90;99.90
20690;DHT22;10504;48.762;8.996;2024-03-02T13:03:57;10.80;99.90
20690;DHT22;10504;48.762;8.996;2024-03-02T13:06:24;10.90;99.90
20690;DHT22;10504;48.762;8.996;2024-03-02T13:08:50;11.00;99.90
20690;DHT22;10504;48.762;8.996;2024-03-02T13:11:16;11.10;99.90
20690;DHT22;10504;48.762;8.996;2024-03-02T13:13:42;11.10;99.90
20690;DHT22;10504;48.762;8.996;2024-03-02T13:16:14;11.10;99.90
20690;DHT22;10504;48.762;8.996;2024-03-02T13:18:41;11.10;99.90
20690;DHT22;10504;48.762;8.996;2024-03-02T13:21:08;11.20;99.90
20690;DHT22;10504;48.762;8.996;2024-03-02T13:23:33;11.30;99.90
20690;DHT22;10504;48.762;8.996;2024-03-02T13:25:59;11.30;99.90
20690;DHT22;10504;48.762;8.996;2024-03-02T13:28:25;11.30;99.90
20690;DHT22;10504;48.762;8.996;2024-03-02T13:30:51;11.30;99.90
20690;DHT22;10504;48.762;8.996;2024-03-02T13:33:17;11.30;99.90
20690;DHT22;10504;48.762;8.996;2024-03-02T13:35:50;11.20;99.90
20690;DHT22;10504;48.762;8.996;2024-03-02T13:38:19;11.10;99.90
20690;DHT22;10504;48.762;8.996;2024-03-02T13:40:46;11.10;99.90
20690;DHT22;10504;48.762;8.996;2024-03-02T13:43:12;11.00;99.90
20690;DHT22;10504;48.762;8.996;2024-03-02T13:45:40;10.90;99.90
20690;DHT22;10504;48.762;8.996;2024-03-02T13:48:06;10.90;99.90
20690;DHT22;10504;48.762;8.996;2024-03-02T13:50:32;10.90;99.90
20690;DHT22;10504;48.762;8.996;2024-03-02T13:52:58;10.80;99.90
20690;DHT22;10504;48.762;8.996;2024-03-02T13:55:23;10.80;99.90
20690;DHT22;10504;48.762;8.996;2024-03-02T13:57:49;10.80;99.90
20690;DHT22;10504;48.762;8.996;2024-03-02T14:00:18;10.80;99.90
20690;DHT22;10504;48.762;8.996;2024-03-02T14:02:45;10.70;99.90
20690;DHT22;10504;48.762;8.996;2024-03-02T14:05:11;10.70;99.90
20690;DHT22;10504;48.762;8.996;2024-03-02T14:07:38;10.60;99.90
20690;DHT22;10504;48.762;8.996;2024-03-02T14:10:04;10.60;99.90
20690;DHT22;10504;48.762;8.996;2024-03-02T14:12:30;10.60;99.90
20690;DHT22;10504;48.762;8.996;2024-03-02T14:14:56;10.60;99.90
20690;DHT22;10504;48.762;8.996;2024-03-02T14:17:24;10.70;99.90
20690;DHT22;10504;48.762;8.996;2024-03-02T14:19:50;10.70;99.90
20690;DHT22;10504;48.762;8.996;2024-03-02T14:22:16;10.80;99.90
20690;DHT22;10504;48.762;8.996;2024-03-02T14:24:43;10.90;99.90
20690;DHT22;10504;48.762;8.996;2024-03-02T14:27:09;11.00;99.90
20690;DHT22;10504;48.762;8.996;2024-03-02T14:29:34;11.10;99.90
20690;DHT22;10504;48.762;8.996;2024-03-02T14:32:03;11.30;99.90
20690;DHT22;10504;48.762;8.996;2024-03-02T14:34:29;11.40;99.90
20690;DHT22;10504;48.762;8.996;2024-03-02T14:36:55;11.50;99.90
20690;DHT22;10504;48.762;8.996;2024-03-02T14:39:21;11.50;99.90
20690;DHT22;10504;48.762;8.996;2024-03-02T14:41:46;11.60;99.90
20690;DHT22;10504;48.762;8.996;2024-03-02T14:44:12;11.60;99.90
20690;DHT22;10504;48.762;8.996;2024-03-02T14:46:38;11.70;99.90
20690;DHT22;10504;48.762;8.996;2024-03-02T14:49:04;11.60;99.90
20690;DHT22;10504;48.762;8.996;2024-03-02T14:51:29;11.60;99.90
20690;DHT22;10504;48.762;8.996;2024-03-02T14:53:55;11.70;99.90
20690;DHT22;10504;48.762;8.996;2024-03-02T14:56:21;11.70;99.90
20690;DHT22;10504;48.762;8.996;2024-03-02T14:58:47;11.70;99.90
20690;DHT22;10504;48.762;8.996;2024-03-02T15:01:13;11.70;99.90
20690;DHT22;10504;48.762;8.996;2024-03-02T15:03:40;11.70;99.90
20690;DHT22;10504;48.762;8.996;2024-03-02T15:06:05;11.60;99.90
20690;DHT22;10504;48.762;8.996;2024-03-02T15:08:32;11.60;99.90
20690;DHT22;10504;48.762;8.996;2024-03-02T15:10:58;11.60;99.90
20690;DHT22;10504;48.762;8.996;2024-03-02T15:13:25;11.50;99.90
20690;DHT22;10504;48.762;8.996;2024-03-02T15:15:52;11.50;99.90
20690;DHT22;10504;48.762;8.996;2024-03-02T15:18:18;11.40;99.90
20690;DHT22;10504;48.762;8.996;2024-03-02T15:20:43;11.30;99.90
20690;DHT22;10504;48.762;8.996;2024-03-02T15:23:09;11.20;99.90
20690;DHT22;10504;48.762;8.996;2024-03-02T15:25:35;11.10;99.90
20690;DHT22;10504;48.762;8.996;2024-03-02T15:28:00;11.00;99.90
20690;DHT22;10504;48.762;8.996;2024-03-02T15:30:26;10.90;99.90
20690;DHT22;10504;48.762;8.996;2024-03-02T15:32:52;10.80;99.90
20690;DHT22;10504;48.762;8.996;2024-03-02T15:35:17;10.80;99.90
20690;DHT22;10504;48.762;8.996;2024-03-02T15:37:43;10.70;99.90
20690;DHT22;10504;48.762;8.996;2024-03-02T15:40:09;10.60;99.90
20690;DHT22;10504;48.762;8.996;2024-03-02T15:42:35;10.60;99.90
20690;DHT22;10504;48.762;8.996;2024-03-02T15:45:01;10.50;99.90
20690;DHT22;10504;48.762;8.996;2024-03-02T15:47:27;10.40;99.90